Bentley, Illinois
Current Conditions -  °F | °C
As of 8:35 AM on Saturday 20 Dec 2014 (Local Time) from KMQB Reporting Station
Haze Haze  
Wind Chill: 24°   Ceiling: 3200
Heat Index: 31°   Visibility: 4mi
Dew Point: 28°   Wind: 7mph
Humidity: 90%   Direction: 140°SE
Pressure: 30.27"   Gusts: NA
Location:  40.4155°N, 91.0269°W
Report Text: KMQB 201435Z AUTO 14006KT 4SM BR OVC032 M01/M02 A3027 RMK AO2 T10061020
Loading
Personal Weather Stations






























Interactive Weather Map New forecast layout! Learn more

10-Day Weather Forecast

Advertisements
Track Severe Weather on mobile